Time;durP1;ratioP1;P1;durP2;ratioP2;P2;SDS_P1;SDS_P2;PMS_P1;PMS_P2;Temp;Humidity;BMP_temperature;BMP_pressure;BME280_temperature;BME280_humidity;BME280_pressure;Samples;Min_cycle;Max_cycle;Signal;HPM_P1;HPM_P2
2022/06/04 00:02:01;;;;;;;15.70;12.10;;;19.30;99.90;;;;;;5062881;28;20428;-78
2022/06/04 00:04:26;;;;;;;14.40;11.37;;;19.20;99.90;;;;;;5061013;28;20175;-77
2022/06/04 00:06:52;;;;;;;16.87;12.13;;;19.20;99.90;;;;;;5066359;28;20202;-78
2022/06/04 00:09:22;;;;;;;24.43;13.63;;;19.10;99.90;;;;;;5052934;28;20190;-78
2022/06/04 00:17:17;;;;;;;19.20;11.90;;;19.10;99.90;;;;;;5062434;28;20436;-78
2022/06/04 00:19:43;;;;;;;18.63;11.50;;;19.00;99.90;;;;;;5059727;28;20981;-78
2022/06/04 00:22:08;;;;;;;17.20;11.57;;;19.00;99.90;;;;;;5049561;28;20667;-77
2022/06/04 00:24:35;;;;;;;21.00;13.50;;;19.00;99.90;;;;;;5062178;28;20173;-78
2022/06/04 00:27:02;;;;;;;16.60;11.63;;;18.90;99.90;;;;;;5062990;28;20227;-78
2022/06/04 00:29:31;;;;;;;15.47;11.33;;;18.80;99.90;;;;;;5062655;28;20437;-78
2022/06/04 00:31:56;;;;;;;15.53;10.60;;;18.80;99.90;;;;;;5063012;28;20416;-78
2022/06/04 00:34:22;;;;;;;19.33;12.03;;;18.70;99.90;;;;;;5059307;28;20420;-77
2022/06/04 00:36:47;;;;;;;16.47;11.50;;;18.60;99.90;;;;;;5062439;28;20186;-78
2022/06/04 00:39:13;;;;;;;20.10;12.50;;;18.50;99.90;;;;;;5062864;28;20193;-77
2022/06/04 00:41:58;;;;;;;21.57;13.27;;;18.40;99.90;;;;;;5059998;28;20193;-76
2022/06/04 00:44:30;;;;;;;15.90;11.10;;;18.40;99.90;;;;;;5065093;28;20177;-77
2022/06/04 00:47:19;;;;;;;22.20;13.60;;;18.30;99.90;;;;;;5057628;28;20457;-76
2022/06/04 00:49:45;;;;;;;15.40;11.87;;;18.30;99.90;;;;;;5067854;28;20820;-77
2022/06/04 00:52:15;;;;;;;16.43;12.70;;;18.30;99.90;;;;;;5058475;28;20430;-77
2022/06/04 00:54:43;;;;;;;18.33;13.53;;;18.20;99.90;;;;;;5069745;28;20220;-75
2022/06/04 00:57:45;;;;;;;21.77;14.30;;;18.40;99.90;;;;;;5060244;28;20417;-77
2022/06/04 01:00:51;;;;;;;20.20;14.60;;;18.20;99.90;;;;;;5077642;28;20447;-78
2022/06/04 01:03:36;;;;;;;19.93;13.67;;;18.20;99.90;;;;;;5070400;28;20527;-77
2022/06/04 01:06:23;;;;;;;17.27;13.57;;;18.20;99.90;;;;;;5038690;28;20456;-78
2022/06/04 01:09:05;;;;;;;18.07;13.63;;;18.10;99.90;;;;;;5058282;28;20977;-78
2022/06/04 01:12:11;;;;;;;21.70;14.60;;;18.00;99.90;;;;;;5066646;28;20790;-78
2022/06/04 01:14:48;;;;;;;24.70;15.60;;;18.00;99.90;;;;;;5060170;28;20500;-78
2022/06/04 01:17:29;;;;;;;17.83;14.17;;;18.00;99.90;;;;;;5061309;28;20421;-76
2022/06/04 01:20:17;;;;;;;18.90;14.00;;;18.00;99.90;;;;;;5051533;28;20786;-79
2022/06/04 01:23:06;;;;;;;18.80;14.07;;;18.00;99.90;;;;;;5057851;28;20416;-78
2022/06/04 01:25:56;;;;;;;17.73;13.97;;;18.00;99.90;;;;;;5060137;28;20457;-78
2022/06/04 01:28:23;;;;;;;22.53;15.73;;;18.00;99.90;;;;;;5063488;28;20481;-77
2022/06/04 01:30:56;;;;;;;29.03;16.60;;;17.90;99.90;;;;;;5062843;28;21100;-78
2022/06/04 01:33:30;;;;;;;15.57;13.23;;;17.90;99.90;;;;;;5061882;28;20413;-78
2022/06/04 01:36:01;;;;;;;20.60;14.20;;;17.90;99.90;;;;;;5069233;28;20477;-78
2022/06/04 01:38:40;;;;;;;14.40;13.00;;;17.90;99.90;;;;;;5063077;28;20416;-77
2022/06/04 01:41:10;;;;;;;19.50;14.80;;;17.90;99.90;;;;;;5062122;28;20412;-78
2022/06/04 01:43:36;;;;;;;21.87;14.17;;;17.90;99.90;;;;;;5060960;28;20409;-78
2022/06/04 01:46:15;;;;;;;23.60;16.03;;;17.80;99.90;;;;;;5063274;28;20472;-77
2022/06/04 01:48:44;;;;;;;18.50;13.70;;;17.80;99.90;;;;;;5061827;28;21149;-78
2022/06/04 01:51:16;;;;;;;22.20;15.80;;;17.80;99.90;;;;;;5062972;28;20424;-77
2022/06/04 01:53:44;;;;;;;18.03;13.93;;;17.80;99.90;;;;;;5061955;28;20420;-79
2022/06/04 01:56:32;;;;;;;21.63;14.90;;;17.70;99.90;;;;;;5061545;28;21013;-79
2022/06/04 01:59:05;;;;;;;20.93;15.73;;;17.70;99.90;;;;;;5057549;28;20448;-78
2022/06/04 02:01:33;;;;;;;20.93;15.03;;;17.70;99.90;;;;;;5068502;28;20432;-77
2022/06/04 02:04:07;;;;;;;17.40;14.70;;;17.60;99.90;;;;;;5059778;28;20511;-77
2022/06/04 02:07:35;;;;;;;20.67;15.33;;;17.60;99.90;;;;;;5066793;28;20605;-78
2022/06/04 02:09:49;;;;;;;17.63;15.07;;;17.50;99.90;;;;;;5061091;28;20540;-78
2022/06/04 02:12:15;;;;;;;17.03;14.60;;;17.50;99.90;;;;;;5062985;28;20769;-78
2022/06/04 02:14:42;;;;;;;25.30;17.03;;;17.40;99.90;;;;;;5061755;28;20464;-77
2022/06/04 02:17:15;;;;;;;19.63;15.63;;;17.40;99.90;;;;;;5063197;28;20185;-77
2022/06/04 02:19:42;;;;;;;21.07;16.33;;;17.40;99.90;;;;;;5063052;28;20452;-78
2022/06/04 02:22:09;;;;;;;20.23;15.33;;;17.40;99.90;;;;;;5058476;28;20948;-77
2022/06/04 02:24:35;;;;;;;24.60;16.80;;;17.30;99.90;;;;;;5060779;28;20437;-78
2022/06/04 02:27:01;;;;;;;28.10;19.10;;;17.30;99.90;;;;;;5063624;28;20463;-78
2022/06/04 02:29:27;;;;;;;20.30;16.00;;;17.30;99.90;;;;;;5061716;28;20198;-78
2022/06/04 02:32:32;;;;;;;19.60;16.47;;;17.20;99.90;;;;;;5063123;28;20469;-77
2022/06/04 02:35:07;;;;;;;18.57;15.60;;;17.20;99.90;;;;;;5054463;28;21044;-77
2022/06/04 02:37:44;;;;;;;25.27;18.10;;;17.20;99.90;;;;;;5070468;28;20791;-78
2022/06/04 02:40:18;;;;;;;25.43;17.93;;;17.10;99.90;;;;;;5062889;28;20440;-78
2022/06/04 02:42:46;;;;;;;28.00;19.13;;;17.10;99.90;;;;;;5061015;28;20483;-78
2022/06/04 02:45:27;;;;;;;24.60;17.80;;;17.00;99.90;;;;;;5062320;28;20528;-78
2022/06/04 02:47:58;;;;;;;25.87;18.63;;;17.00;99.90;;;;;;5050873;28;20466;-78
2022/06/04 02:50:52;;;;;;;19.93;16.27;;;17.00;99.90;;;;;;5063355;28;20444;-78
2022/06/04 02:53:18;;;;;;;22.30;17.87;;;17.00;99.90;;;;;;5066676;28;20899;-77
2022/06/04 02:56:10;;;;;;;27.87;18.47;;;17.00;99.90;;;;;;5059803;28;20474;-78
2022/06/04 02:58:39;;;;;;;23.77;18.63;;;16.90;99.90;;;;;;5066050;28;20459;-79
2022/06/04 03:01:08;;;;;;;27.03;19.67;;;16.90;99.90;;;;;;5066134;28;20424;-77
2022/06/04 03:03:34;;;;;;;59.13;55.17;;;16.90;99.90;;;;;;5057547;28;20828;-78
2022/06/04 03:06:02;;;;;;;61.03;56.97;;;16.90;99.90;;;;;;5066255;28;20447;-77
2022/06/04 03:08:31;;;;;;;23.80;18.43;;;16.90;99.90;;;;;;5067075;28;20412;-78
2022/06/04 03:10:57;;;;;;;33.53;20.93;;;16.80;99.90;;;;;;5067800;28;20421;-78
2022/06/04 03:13:23;;;;;;;19.17;16.17;;;16.90;99.90;;;;;;5056736;28;20475;-78
2022/06/04 03:15:49;;;;;;;20.27;16.40;;;16.80;99.90;;;;;;5066422;28;20190;-78
2022/06/04 03:18:16;;;;;;;20.40;16.40;;;16.80;99.90;;;;;;5070666;28;20423;-77
2022/06/04 03:20:42;;;;;;;28.13;19.63;;;16.80;99.90;;;;;;5061287;28;20430;-77
2022/06/04 03:23:08;;;;;;;19.70;16.67;;;16.80;99.90;;;;;;5065278;28;20428;-77
2022/06/04 03:25:36;;;;;;;18.80;16.80;;;16.80;99.90;;;;;;5055261;28;20845;-78
2022/06/04 03:28:02;;;;;;;19.27;17.10;;;16.80;99.90;;;;;;5066727;28;20206;-78
2022/06/04 03:30:28;;;;;;;28.97;20.50;;;16.70;99.90;;;;;;5045274;28;20442;-77
2022/06/04 03:32:54;;;;;;;27.63;20.40;;;16.80;99.90;;;;;;5062499;28;20730;-78
2022/06/04 03:35:20;;;;;;;23.03;18.47;;;16.90;99.90;;;;;;5062075;28;20432;-77
2022/06/04 03:37:46;;;;;;;25.30;18.90;;;16.90;99.90;;;;;;5069486;28;20940;-77
2022/06/04 03:40:12;;;;;;;19.00;17.00;;;16.90;99.90;;;;;;5054769;28;20448;-78
2022/06/04 03:42:38;;;;;;;18.63;16.70;;;16.90;99.90;;;;;;5062518;28;20277;-77
2022/06/04 03:45:05;;;;;;;19.87;16.20;;;16.90;99.90;;;;;;5063243;28;20521;-77
2022/06/04 03:47:36;;;;;;;21.67;18.47;;;16.90;99.90;;;;;;5062845;28;20457;-77
2022/06/04 03:50:03;;;;;;;23.97;18.10;;;17.00;99.90;;;;;;5065780;28;20538;-77
2022/06/04 03:52:29;;;;;;;27.43;18.17;;;16.90;99.90;;;;;;5078724;28;20451;-78
2022/06/04 03:54:55;;;;;;;23.07;16.67;;;16.90;99.90;;;;;;5085909;28;20421;-77
2022/06/04 03:57:38;;;;;;;17.80;15.73;;;16.90;99.90;;;;;;5069947;28;20186;-77
2022/06/04 04:00:08;;;;;;;25.50;17.90;;;17.00;99.90;;;;;;5053816;28;20197;-78
2022/06/04 04:02:34;;;;;;;26.87;18.77;;;17.00;99.90;;;;;;5061699;28;20421;-78
2022/06/04 04:04:59;;;;;;;19.13;16.53;;;17.00;99.90;;;;;;5065909;28;20412;-78
2022/06/04 04:07:25;;;;;;;21.63;17.23;;;17.00;99.90;;;;;;5067209;28;20521;-77
2022/06/04 04:09:51;;;;;;;25.03;18.13;;;17.00;99.90;;;;;;5066181;28;20197;-77
2022/06/04 04:12:16;;;;;;;23.33;16.90;;;17.10;99.90;;;;;;5064087;28;20277;-78
2022/06/04 04:14:42;;;;;;;32.83;19.43;;;17.10;99.90;;;;;;5063475;28;20174;-78
2022/06/04 04:17:09;;;;;;;23.57;17.60;;;17.20;99.90;;;;;;5065435;28;20555;-78
2022/06/04 04:19:34;;;;;;;21.10;16.30;;;17.20;99.90;;;;;;5064837;28;20206;-78
2022/06/04 04:22:00;;;;;;;20.60;16.00;;;17.10;99.90;;;;;;5080608;28;20435;-77
2022/06/04 04:24:26;;;;;;;22.20;17.10;;;17.10;99.90;;;;;;5072936;28;20242;-77
2022/06/04 04:26:51;;;;;;;28.57;19.87;;;17.20;99.90;;;;;;5064934;28;20210;-78
2022/06/04 04:29:17;;;;;;;34.40;31.23;;;17.20;99.90;;;;;;5065072;28;20206;-77
2022/06/04 04:31:42;;;;;;;69.00;64.97;;;17.20;99.90;;;;;;5063967;28;20200;-78
2022/06/04 04:34:08;;;;;;;22.27;17.70;;;17.20;99.90;;;;;;5063524;28;20182;-76
2022/06/04 04:36:34;;;;;;;26.07;19.93;;;17.30;99.90;;;;;;5060982;28;20231;-78
2022/06/04 04:39:00;;;;;;;20.67;16.23;;;17.40;99.90;;;;;;5064864;28;20233;-77
2022/06/04 04:41:25;;;;;;;22.40;20.20;;;17.40;99.90;;;;;;5062937;28;20190;-77
2022/06/04 04:43:51;;;;;;;187.93;179.83;;;17.50;99.90;;;;;;5063309;28;20974;-78
2022/06/04 04:46:18;;;;;;;28.00;24.00;;;17.50;99.90;;;;;;5052331;28;20237;-78
2022/06/04 04:48:45;;;;;;;31.50;21.30;;;17.90;99.90;;;;;;5059321;28;20491;-78
2022/06/04 04:51:17;;;;;;;19.87;17.73;;;17.90;99.90;;;;;;5064041;28;20456;-77
2022/06/04 04:53:43;;;;;;;23.63;18.63;;;17.90;99.90;;;;;;5059737;28;20433;-78
2022/06/04 04:56:09;;;;;;;26.30;23.73;;;18.10;99.90;;;;;;5063202;28;20519;-78
2022/06/04 04:58:35;;;;;;;75.60;70.40;;;18.20;99.90;;;;;;5062862;28;20440;-78
2022/06/04 05:01:01;;;;;;;23.20;19.20;;;18.30;99.90;;;;;;5064009;28;20435;-78
2022/06/04 05:03:26;;;;;;;89.17;83.77;;;18.40;99.90;;;;;;5050448;28;20656;-76
2022/06/04 05:06:00;;;;;;;43.80;40.20;;;18.60;99.90;;;;;;5064625;28;20177;-78
2022/06/04 05:08:25;;;;;;;53.37;50.27;;;18.70;99.90;;;;;;5064595;28;20193;-78
2022/06/04 05:10:51;;;;;;;46.30;30.30;;;18.60;99.90;;;;;;5058251;28;20424;-78
2022/06/04 05:13:17;;;;;;;200.53;191.40;;;18.80;99.90;;;;;;5066892;28;20263;-78
2022/06/04 05:15:43;;;;;;;233.67;223.67;;;18.80;99.90;;;;;;5067358;28;20198;-78
2022/06/04 05:18:09;;;;;;;128.30;122.73;;;18.80;99.90;;;;;;5066441;28;20270;-78
2022/06/04 05:20:34;;;;;;;302.47;289.70;;;18.80;99.90;;;;;;5065456;28;21016;-78
2022/06/04 05:23:00;;;;;;;188.03;180.33;;;18.90;99.90;;;;;;5071681;28;20562;-78
2022/06/04 05:25:25;;;;;;;291.97;280.00;;;19.00;99.90;;;;;;5072548;28;20208;-78
2022/06/04 05:27:51;;;;;;;379.00;360.23;;;19.10;99.90;;;;;;5071778;28;20209;-78
2022/06/04 05:30:16;;;;;;;306.50;293.60;;;19.20;99.90;;;;;;5063410;28;20197;-78
2022/06/04 05:32:42;;;;;;;330.33;314.60;;;19.30;99.90;;;;;;5060518;28;20210;-78
2022/06/04 05:35:08;;;;;;;356.33;343.00;;;19.40;99.90;;;;;;5061012;28;20182;-78
2022/06/04 05:37:34;;;;;;;21.90;16.77;;;19.40;99.90;;;;;;5066914;28;20186;-76
2022/06/04 05:40:00;;;;;;;20.03;14.93;;;19.60;99.90;;;;;;5060029;28;20468;-77
2022/06/04 05:42:25;;;;;;;122.50;116.97;;;19.70;99.90;;;;;;5059504;28;20590;-78
2022/06/04 05:44:52;;;;;;;22.83;17.63;;;19.90;99.90;;;;;;5064814;28;20237;-76
2022/06/04 05:47:18;;;;;;;299.07;284.20;;;20.00;99.90;;;;;;5059178;28;20259;-76
2022/06/04 05:49:43;;;;;;;22.13;15.80;;;20.10;99.90;;;;;;5065097;28;20432;-76
2022/06/04 05:52:09;;;;;;;233.20;224.33;;;20.10;99.90;;;;;;5057205;28;20190;-76
2022/06/04 05:54:35;;;;;;;49.27;46.37;;;20.30;99.90;;;;;;5067006;28;20188;-77
2022/06/04 05:57:01;;;;;;;237.33;227.87;;;;;;;;;;5050583;28;20187;-78
2022/06/04 05:59:26;;;;;;;37.53;34.70;;;20.50;99.90;;;;;;5058500;28;20206;-78
2022/06/04 06:01:52;;;;;;;23.07;17.53;;;20.50;99.90;;;;;;5064047;28;20507;-77
2022/06/04 06:04:20;;;;;;;23.07;16.60;;;20.70;99.90;;;;;;5053861;28;20192;-78
2022/06/04 06:06:48;;;;;;;21.90;16.53;;;20.80;99.90;;;;;;5061652;28;20729;-78
2022/06/04 06:09:16;;;;;;;18.10;13.20;;;20.80;99.90;;;;;;5062294;28;20439;-78
2022/06/04 06:11:43;;;;;;;25.77;17.47;;;20.90;99.90;;;;;;5069571;28;20950;-77
2022/06/04 06:14:09;;;;;;;20.63;16.30;;;20.90;99.90;;;;;;5060561;28;20415;-77
2022/06/04 06:16:39;;;;;;;14.93;12.07;;;21.10;99.90;;;;;;5064301;28;20810;-77
2022/06/04 06:19:04;;;;;;;16.43;12.30;;;21.20;99.90;;;;;;5064231;28;20445;-77
2022/06/04 06:21:32;;;;;;;19.57;17.37;;;21.20;99.90;;;;;;5059917;28;20429;-77
2022/06/04 06:23:58;;;;;;;151.13;144.00;;;21.40;99.90;;;;;;5067333;28;20182;-77
2022/06/04 06:26:27;;;;;;;483.33;462.90;;;21.50;99.90;;;;;;5063072;28;20464;-77
2022/06/04 06:28:54;;;;;;;78.27;74.80;;;21.50;99.90;;;;;;5070449;28;20479;-77
2022/06/04 06:31:21;;;;;;;111.03;105.17;;;21.50;99.90;;;;;;5064433;28;20869;-77
2022/06/04 06:33:48;;;;;;;357.40;340.13;;;21.70;99.90;;;;;;5050669;28;20420;-77
2022/06/04 06:36:16;;;;;;;462.53;439.03;;;21.70;99.90;;;;;;5067779;28;20443;-78
2022/06/04 06:38:43;;;;;;;359.50;344.53;;;21.70;99.90;;;;;;5054665;28;20440;-77
2022/06/04 06:41:09;;;;;;;137.10;130.77;;;21.70;99.90;;;;;;5066891;28;20408;-77
2022/06/04 06:46:08;;;;;;;65.83;62.70;;;21.80;99.90;;;;;;5081624;28;20274;-78
2022/06/04 06:48:35;;;;;;;28.33;23.07;;;22.00;99.90;;;;;;5087733;28;20429;-78
2022/06/04 06:51:09;;;;;;;29.17;16.00;;;22.00;99.90;;;;;;5071481;28;20485;-77
2022/06/04 06:53:35;;;;;;;30.60;26.20;;;22.10;99.90;;;;;;5069397;28;20480;-78
2022/06/04 06:56:18;;;;;;;87.43;83.23;;;22.20;99.90;;;;;;5068356;28;20823;-77
2022/06/04 06:58:44;;;;;;;79.70;74.73;;;22.40;99.90;;;;;;5066189;28;20206;-78
2022/06/04 07:01:11;;;;;;;466.80;446.00;;;22.40;99.90;;;;;;5060900;28;20421;-78
2022/06/04 07:03:41;;;;;;;223.10;207.83;;;22.50;99.90;;;;;;5067338;28;20511;-78
2022/06/04 07:06:10;;;;;;;380.77;358.63;;;22.60;99.90;;;;;;5066851;28;20435;-77
2022/06/04 07:08:37;;;;;;;290.30;275.60;;;22.80;99.90;;;;;;5063206;28;20436;-78
2022/06/04 07:11:04;;;;;;;354.10;337.30;;;22.80;99.90;;;;;;5058411;28;20467;-77
2022/06/04 07:13:29;;;;;;;432.00;413.33;;;22.80;99.90;;;;;;5063551;28;20429;-77
2022/06/04 07:15:55;;;;;;;81.50;76.27;;;22.80;99.90;;;;;;5059745;28;20421;-77
2022/06/04 07:18:21;;;;;;;236.87;227.20;;;22.80;99.90;;;;;;5066966;28;20170;-77
2022/06/04 07:20:47;;;;;;;26.53;15.17;;;22.80;99.90;;;;;;5051961;28;20183;-76
2022/06/04 07:23:13;;;;;;;39.10;36.13;;;22.90;99.90;;;;;;5062016;28;20651;-77
2022/06/04 07:25:41;;;;;;;48.43;45.00;;;23.00;99.90;;;;;;5066388;28;20443;-77
2022/06/04 07:28:08;;;;;;;284.03;272.80;;;23.00;99.90;;;;;;5066919;28;20456;-77
2022/06/04 07:30:34;;;;;;;392.47;375.47;;;23.10;99.90;;;;;;5062386;28;20428;-77
2022/06/04 07:32:59;;;;;;;117.33;111.20;;;23.10;99.90;;;;;;5061763;28;20424;-76
2022/06/04 07:35:25;;;;;;;185.80;177.07;;;23.00;99.90;;;;;;5061774;28;20663;-78
2022/06/04 07:37:50;;;;;;;237.27;225.07;;;23.00;99.90;;;;;;5070239;28;20192;-77
2022/06/04 07:40:16;;;;;;;394.77;376.13;;;23.00;99.90;;;;;;5060954;28;20218;-76
2022/06/04 07:42:42;;;;;;;389.43;369.50;;;23.10;99.90;;;;;;5052206;28;20241;-76
2022/06/04 07:45:09;;;;;;;267.53;251.93;;;23.30;99.90;;;;;;5060728;28;20182;-76
2022/06/04 07:47:35;;;;;;;225.53;211.07;;;23.20;99.90;;;;;;5063012;28;20234;-78
2022/06/04 07:50:02;;;;;;;136.87;128.43;;;23.30;99.90;;;;;;5066034;28;20540;-78
2022/06/04 07:52:27;;;;;;;392.97;372.90;;;23.40;99.90;;;;;;5061245;28;20499;-79
2022/06/04 07:54:53;;;;;;;217.90;205.30;;;23.50;99.90;;;;;;5063436;28;20929;-78
2022/06/04 07:57:19;;;;;;;189.30;178.43;;;23.60;99.90;;;;;;5064379;28;20217;-77
2022/06/04 07:59:45;;;;;;;132.77;124.20;;;23.90;99.90;;;;;;5065352;28;20806;-78
2022/06/04 08:02:12;;;;;;;265.27;251.07;;;23.90;99.90;;;;;;5065637;28;20194;-77
2022/06/04 08:04:38;;;;;;;213.70;200.63;;;;;;;;;;5053988;28;20743;-78
2022/06/04 08:07:05;;;;;;;236.73;223.33;;;23.80;99.90;;;;;;5063516;28;20587;-78
2022/06/04 08:09:31;;;;;;;17.20;10.90;;;23.90;99.90;;;;;;5066051;28;20186;-78
2022/06/04 08:11:57;;;;;;;361.70;342.70;;;24.00;99.90;;;;;;5067334;28;20501;-78
2022/06/04 08:14:24;;;;;;;225.10;211.57;;;24.40;99.90;;;;;;5062567;28;20425;-78
2022/06/04 08:16:59;;;;;;;268.60;253.43;;;24.50;99.90;;;;;;5067424;28;20185;-77
2022/06/04 08:19:29;;;;;;;118.57;112.47;;;24.60;99.90;;;;;;5068840;28;20450;-78
2022/06/04 08:21:55;;;;;;;31.70;18.97;;;24.70;99.90;;;;;;5062084;28;20419;-78
2022/06/04 08:24:22;;;;;;;359.40;340.20;;;24.50;99.90;;;;;;5066904;28;20515;-78
2022/06/04 08:26:58;;;;;;;241.33;227.10;;;24.30;99.90;;;;;;5054542;28;20225;-78
2022/06/04 08:29:24;;;;;;;24.47;13.60;;;24.50;99.90;;;;;;5073958;28;20437;-78
2022/06/04 08:31:50;;;;;;;55.77;53.00;;;24.50;99.90;;;;;;5068606;28;20462;-78
2022/06/04 08:34:15;;;;;;;253.43;242.47;;;24.60;99.90;;;;;;5061042;28;20456;-78
2022/06/04 08:36:44;;;;;;;397.93;377.77;;;24.80;99.90;;;;;;5055319;28;20929;-77
2022/06/04 08:39:11;;;;;;;163.63;156.03;;;24.90;99.90;;;;;;5067021;28;20206;-77
2022/06/04 08:41:39;;;;;;;474.87;453.23;;;25.00;99.90;;;;;;5061320;28;20434;-77
2022/06/04 08:44:47;;;;;;;380.57;361.17;;;25.00;99.90;;;;;;5067267;28;20440;-78
2022/06/04 08:47:46;;;;;;;342.17;324.47;;;25.20;99.90;;;;;;5019645;28;20450;-78
2022/06/04 08:50:21;;;;;;;392.77;375.07;;;25.00;99.90;;;;;;4954644;29;20464;-78
2022/06/04 08:52:59;;;;;;;364.73;348.83;;;24.90;99.90;;;;;;4954774;29;20429;-78
2022/06/04 08:58:56;;;;;;;40.63;37.47;;;24.80;99.90;;;;;;4953185;29;20997;-77
2022/06/04 09:01:30;;;;;;;310.63;298.27;;;24.80;99.90;;;;;;4951980;29;21017;-76
2022/06/04 09:04:29;;;;;;;455.30;431.63;;;24.90;99.90;;;;;;4951250;29;20459;-78
2022/06/04 09:07:13;;;;;;;372.27;354.03;;;24.80;99.90;;;;;;4952315;28;20462;-77
2022/06/04 09:10:03;;;;;;;16.20;13.63;;;25.10;99.90;;;;;;4937266;29;21073;-78
2022/06/04 09:12:34;;;;;;;358.03;344.87;;;25.20;99.90;;;;;;4952121;29;20434;-78
2022/06/04 09:15:31;;;;;;;257.73;245.97;;;25.20;99.90;;;;;;4934282;29;20434;-77
2022/06/04 09:18:01;;;;;;;284.57;273.37;;;25.50;99.90;;;;;;4950242;28;20438;-77
2022/06/04 09:20:32;;;;;;;477.27;452.50;;;25.40;99.90;;;;;;4955554;28;20451;-78
2022/06/04 09:23:04;;;;;;;309.90;292.57;;;25.60;99.90;;;;;;4977245;28;20479;-77
2022/06/04 09:25:43;;;;;;;236.43;222.87;;;25.70;99.90;;;;;;5006385;28;21021;-77
2022/06/04 09:28:34;;;;;;;216.03;203.67;;;25.90;99.90;;;;;;5058942;28;20514;-77
2022/06/04 09:31:08;;;;;;;21.30;11.03;;;26.00;99.90;;;;;;5061553;28;20415;-78
2022/06/04 09:33:55;;;;;;;17.97;10.33;;;26.00;99.90;;;;;;5063730;28;20407;-77
2022/06/04 09:36:28;;;;;;;14.60;9.37;;;26.10;99.90;;;;;;5063669;28;20444;-76
2022/06/04 09:38:59;;;;;;;21.30;10.73;;;26.00;99.90;;;;;;5058658;28;20447;-77
2022/06/04 09:41:27;;;;;;;225.77;217.20;;;26.10;99.90;;;;;;5085815;28;20470;-78
2022/06/04 09:44:13;;;;;;;71.77;68.67;;;26.10;99.90;;;;;;5088721;28;20489;-77
2022/06/04 09:46:43;;;;;;;442.30;420.67;;;26.00;99.90;;;;;;5062406;28;20968;-76
2022/06/04 09:49:39;;;;;;;473.97;454.47;;;26.00;99.90;;;;;;5067891;28;20435;-76
2022/06/04 09:52:22;;;;;;;381.50;362.27;;;26.10;99.90;;;;;;5024042;28;20541;-77
2022/06/04 09:54:54;;;;;;;394.73;373.30;;;26.30;99.90;;;;;;5033760;28;20432;-78
2022/06/04 09:57:29;;;;;;;299.63;284.10;;;26.10;99.90;;;;;;5025731;28;20727;-78
2022/06/04 09:59:57;;;;;;;286.97;271.70;;;26.20;99.90;;;;;;5022327;28;21041;-77
2022/06/04 10:02:23;;;;;;;460.93;437.23;;;26.30;99.90;;;;;;5039141;28;20425;-77
2022/06/04 10:05:18;;;;;;;466.93;443.63;;;26.30;99.90;;;;;;5045231;28;20524;-77
2022/06/04 10:07:44;;;;;;;473.20;449.67;;;26.60;99.90;;;;;;5028831;28;20534;-78
2022/06/04 10:10:34;;;;;;;178.73;170.37;;;26.80;99.90;;;;;;5046343;28;20929;-77
2022/06/04 10:16:12;;;;;;;538.90;513.17;;;26.90;99.90;;;;;;5032382;28;20772;-77
2022/06/04 10:18:37;;;;;;;306.80;295.37;;;27.00;99.90;;;;;;5032494;28;20877;-77
2022/06/04 10:21:07;;;;;;;353.10;336.00;;;27.00;99.90;;;;;;5040875;28;20422;-77
2022/06/04 10:23:44;;;;;;;468.20;444.60;;;27.30;99.90;;;;;;5047553;28;20179;-77
2022/06/04 10:26:15;;;;;;;266.40;252.77;;;27.60;99.90;;;;;;5023189;28;20437;-78
2022/06/04 10:29:10;;;;;;;566.00;539.37;;;27.50;99.90;;;;;;5057645;28;20440;-77
2022/06/04 10:31:54;;;;;;;293.83;277.33;;;27.50;99.90;;;;;;5055740;28;20441;-77
2022/06/04 10:34:57;;;;;;;256.90;243.07;;;27.10;99.90;;;;;;5061898;28;20439;-77
2022/06/04 10:37:26;;;;;;;263.23;248.93;;;26.70;99.90;;;;;;5065953;28;20428;-77
2022/06/04 10:40:07;;;;;;;435.80;414.13;;;26.80;99.90;;;;;;5064973;28;20445;-77
2022/06/04 10:42:46;;;;;;;428.27;405.70;;;26.90;99.90;;;;;;5063162;28;20425;-77
2022/06/04 10:45:22;;;;;;;329.60;312.77;;;27.00;99.90;;;;;;5066495;28;20819;-77
2022/06/04 10:48:01;;;;;;;401.77;380.23;;;27.10;99.90;;;;;;5051991;28;20866;-77
2022/06/04 10:50:30;;;;;;;416.77;396.30;;;27.30;99.90;;;;;;5060656;28;20452;-77
2022/06/04 10:53:46;;;;;;;291.67;275.70;;;27.30;99.90;;;;;;5060066;28;20416;-78
2022/06/04 10:56:20;;;;;;;388.63;367.23;;;27.30;99.90;;;;;;5039183;28;20428;-77
2022/06/04 10:58:59;;;;;;;455.30;432.47;;;27.40;99.90;;;;;;5060194;28;20429;-77
2022/06/04 11:01:46;;;;;;;271.87;257.77;;;27.30;99.90;;;;;;5071216;28;20450;-77
2022/06/04 11:04:15;;;;;;;494.93;471.73;;;27.10;99.90;;;;;;5060238;28;20410;-77
2022/06/04 11:06:46;;;;;;;237.13;226.40;;;27.30;99.90;;;;;;5065723;28;20452;-77
2022/06/04 11:09:19;;;;;;;396.77;377.63;;;27.30;99.90;;;;;;5066296;28;20551;-77
2022/06/04 11:12:31;;;;;;;17.67;9.60;;;27.30;99.90;;;;;;5070303;28;20404;-77
2022/06/04 11:15:12;;;;;;;22.50;10.23;;;27.40;99.90;;;;;;5058661;28;20423;-77
2022/06/04 11:17:47;;;;;;;14.00;7.23;;;27.60;99.90;;;;;;5051303;28;20424;-77
2022/06/04 11:20:22;;;;;;;21.07;10.30;;;27.90;99.90;;;;;;5063705;28;20466;-77
2022/06/04 11:23:31;;;;;;;14.67;7.60;;;27.90;99.90;;;;;;5059460;28;20420;-78
2022/06/04 11:26:02;;;;;;;15.83;9.00;;;28.10;99.90;;;;;;5058756;28;21085;-77
2022/06/04 11:28:30;;;;;;;24.50;11.37;;;28.00;99.90;;;;;;5068967;28;20456;-77
2022/06/04 11:31:19;;;;;;;40.53;16.43;;;28.00;99.90;;;;;;5063689;28;20421;-77
2022/06/04 11:34:01;;;;;;;14.43;7.70;;;27.70;99.90;;;;;;5064993;28;20404;-77
2022/06/04 11:36:43;;;;;;;14.27;7.20;;;27.80;99.90;;;;;;5063125;28;20844;-77
2022/06/04 11:39:30;;;;;;;13.27;8.43;;;27.70;99.90;;;;;;5063363;28;20519;-77
2022/06/04 11:42:06;;;;;;;15.30;8.10;;;27.70;99.90;;;;;;5054013;28;20417;-77
2022/06/04 11:44:34;;;;;;;17.53;11.30;;;27.70;99.90;;;;;;5069242;28;20422;-77
2022/06/04 11:47:24;;;;;;;50.73;47.50;;;28.00;99.90;;;;;;5052182;28;20472;-77
2022/06/04 11:50:08;;;;;;;22.47;11.47;;;28.10;99.90;;;;;;5056677;28;20428;-77
2022/06/04 11:52:44;;;;;;;326.90;311.13;;;28.00;99.90;;;;;;5061993;28;20421;-76
2022/06/04 11:55:32;;;;;;;131.97;126.37;;;28.20;99.90;;;;;;5067251;28;20805;-77
2022/06/04 11:58:16;;;;;;;194.73;186.53;;;;;;;;;;5054743;28;20426;-77
2022/06/04 12:00:46;;;;;;;23.70;12.50;;;27.90;99.90;;;;;;5047455;28;20424;-77
2022/06/04 12:03:15;;;;;;;409.07;391.63;;;27.90;99.90;;;;;;5058505;28;20417;-77
2022/06/04 12:05:50;;;;;;;540.93;512.17;;;28.00;99.90;;;;;;5056012;28;20766;-77
2022/06/04 21:22:36;;;;;;;20.13;9.93;;;20.30;99.90;;;;;;5037563;28;21028;-78
2022/06/04 21:25:02;;;;;;;16.83;9.77;;;20.40;99.90;;;;;;5055189;28;20448;-78
2022/06/04 21:27:28;;;;;;;14.80;8.90;;;20.40;99.90;;;;;;5056111;28;20167;-80
2022/06/04 21:29:54;;;;;;;23.40;10.90;;;20.40;99.90;;;;;;5053686;28;20988;-78
2022/06/04 21:32:19;;;;;;;15.60;9.13;;;20.40;99.90;;;;;;5042697;28;20191;-78
2022/06/04 21:37:41;;;;;;;15.57;9.27;;;20.50;99.90;;;;;;5049545;28;20212;-79
2022/06/04 21:40:13;;;;;;;14.40;9.00;;;20.50;99.90;;;;;;5039996;28;20429;-79
2022/06/04 21:42:40;;;;;;;17.70;9.20;;;20.50;99.90;;;;;;5043290;28;20413;-80
2022/06/04 21:45:09;;;;;;;13.67;8.53;;;20.50;99.90;;;;;;5038409;28;20941;-78
2022/06/04 21:47:36;;;;;;;16.03;9.20;;;20.50;99.90;;;;;;5038183;28;20422;-79
2022/06/04 21:50:03;;;;;;;13.83;8.43;;;20.50;99.90;;;;;;5046223;28;20492;-79
2022/06/04 21:52:28;;;;;;;16.33;9.10;;;20.50;99.90;;;;;;5043785;28;20529;-79
2022/06/04 21:54:55;;;;;;;12.13;8.10;;;20.40;99.90;;;;;;5050132;28;20469;-79
2022/06/04 21:57:21;;;;;;;17.73;10.10;;;20.50;99.90;;;;;;5043209;28;20279;-79
2022/06/04 21:59:47;;;;;;;16.03;9.90;;;20.40;99.90;;;;;;5030731;28;20488;-79
2022/06/04 22:02:13;;;;;;;12.30;8.27;;;20.40;99.90;;;;;;5049994;28;20465;-79
2022/06/04 22:04:39;;;;;;;17.10;9.73;;;20.40;99.90;;;;;;5048523;28;20183;-79
2022/06/04 22:07:05;;;;;;;13.80;8.97;;;20.50;99.90;;;;;;5045805;28;20456;-79
2022/06/04 22:09:33;;;;;;;18.03;9.97;;;20.40;99.90;;;;;;5042161;28;20269;-79
2022/06/04 22:12:08;;;;;;;13.27;9.13;;;20.40;99.90;;;;;;5049118;28;20183;-80
2022/06/04 22:14:40;;;;;;;12.50;8.77;;;20.40;99.90;;;;;;5047609;28;20432;-79
2022/06/04 22:17:06;;;;;;;20.03;10.73;;;20.40;99.90;;;;;;5046720;28;20429;-79
2022/06/04 22:19:36;;;;;;;16.10;9.90;;;20.40;99.90;;;;;;5037001;28;20457;-77